Yuma Proving Ground, Arizona
Current Conditions -  °F | °C
As of 6:57 AM on Saturday 22 Nov 2014 (Local Time) from KNYL Reporting Station
Clear Clear  
Wind Chill: 49°   Ceiling: Unl
Heat Index: 49°   Visibility: 10mi
Dew Point: 38°   Wind: 0mph
Humidity: 66%   Direction: NA
Pressure: 30.03"   Gusts: NA
Location:  32.7338°N, 114.51°W
Report Text: KNYL 221357Z 00000KT 10SM CLR 09/03 A3003 RMK AO2 SLP166 T00940033
Loading
Personal Weather Stations






























Interactive Weather Map New forecast layout! Learn more

10-Day Weather Forecast

Advertisements
Track Severe Weather on mobile